sensor_id;sensor_type;location;lat;lon;timestamp;P1;durP1;ratioP1;P2;durP2;ratioP2
35550;SDS011;21655;46.056;13.616;2023-04-03T00:01:04;8.98;;;3.70;;
35550;SDS011;21655;46.056;13.616;2023-04-03T00:03:30;7.78;;;3.20;;
35550;SDS011;21655;46.056;13.616;2023-04-03T00:05:55;8.93;;;3.58;;
35550;SDS011;21655;46.056;13.616;2023-04-03T00:08:21;9.38;;;3.35;;
35550;SDS011;21655;46.056;13.616;2023-04-03T00:10:47;8.52;;;3.50;;
35550;SDS011;21655;46.056;13.616;2023-04-03T00:13:12;8.85;;;3.47;;
35550;SDS011;21655;46.056;13.616;2023-04-03T00:15:38;9.63;;;3.70;;
35550;SDS011;21655;46.056;13.616;2023-04-03T00:18:04;8.48;;;3.55;;
35550;SDS011;21655;46.056;13.616;2023-04-03T00:20:30;5.30;;;2.83;;
35550;SDS011;21655;46.056;13.616;2023-04-03T00:22:56;5.72;;;2.97;;
35550;SDS011;21655;46.056;13.616;2023-04-03T00:25:22;6.93;;;3.08;;
35550;SDS011;21655;46.056;13.616;2023-04-03T00:27:48;8.07;;;3.92;;
35550;SDS011;21655;46.056;13.616;2023-04-03T00:30:14;6.95;;;3.20;;
35550;SDS011;21655;46.056;13.616;2023-04-03T00:32:42;6.95;;;3.30;;
35550;SDS011;21655;46.056;13.616;2023-04-03T00:35:07;7.30;;;3.15;;
35550;SDS011;21655;46.056;13.616;2023-04-03T00:37:33;5.70;;;3.35;;
35550;SDS011;21655;46.056;13.616;2023-04-03T00:40:00;7.90;;;3.35;;
35550;SDS011;21655;46.056;13.616;2023-04-03T00:42:26;7.38;;;3.10;;
35550;SDS011;21655;46.056;13.616;2023-04-03T00:47:23;6.63;;;3.13;;
35550;SDS011;21655;46.056;13.616;2023-04-03T00:49:49;8.07;;;2.60;;
35550;SDS011;21655;46.056;13.616;2023-04-03T00:52:17;5.22;;;2.40;;
35550;SDS011;21655;46.056;13.616;2023-04-03T00:54:47;5.65;;;2.33;;
35550;SDS011;21655;46.056;13.616;2023-04-03T00:57:15;10.55;;;3.08;;
35550;SDS011;21655;46.056;13.616;2023-04-03T00:59:43;4.78;;;2.53;;
35550;SDS011;21655;46.056;13.616;2023-04-03T01:02:12;4.20;;;2.42;;
35550;SDS011;21655;46.056;13.616;2023-04-03T01:04:41;4.95;;;2.10;;
35550;SDS011;21655;46.056;13.616;2023-04-03T01:07:08;3.90;;;2.20;;
35550;SDS011;21655;46.056;13.616;2023-04-03T01:09:37;3.53;;;2.00;;
35550;SDS011;21655;46.056;13.616;2023-04-03T01:12:21;6.28;;;2.30;;
35550;SDS011;21655;46.056;13.616;2023-04-03T01:14:48;4.20;;;1.70;;
35550;SDS011;21655;46.056;13.616;2023-04-03T01:25:21;2.95;;;1.30;;
35550;SDS011;21655;46.056;13.616;2023-04-03T01:27:46;6.70;;;1.50;;
35550;SDS011;21655;46.056;13.616;2023-04-03T01:30:12;2.78;;;1.30;;
35550;SDS011;21655;46.056;13.616;2023-04-03T01:32:41;3.22;;;1.30;;
35550;SDS011;21655;46.056;13.616;2023-04-03T01:35:08;2.28;;;1.40;;
35550;SDS011;21655;46.056;13.616;2023-04-03T01:37:34;3.35;;;1.27;;
35550;SDS011;21655;46.056;13.616;2023-04-03T01:40:00;2.72;;;1.30;;
35550;SDS011;21655;46.056;13.616;2023-04-03T01:42:25;1.77;;;0.93;;
35550;SDS011;21655;46.056;13.616;2023-04-03T01:44:51;1.70;;;1.05;;
35550;SDS011;21655;46.056;13.616;2023-04-03T01:47:16;2.92;;;1.08;;
35550;SDS011;21655;46.056;13.616;2023-04-03T01:49:42;1.90;;;1.10;;
35550;SDS011;21655;46.056;13.616;2023-04-03T01:52:07;2.58;;;1.10;;
35550;SDS011;21655;46.056;13.616;2023-04-03T01:54:33;1.85;;;0.90;;
35550;SDS011;21655;46.056;13.616;2023-04-03T01:56:58;2.83;;;1.20;;
35550;SDS011;21655;46.056;13.616;2023-04-03T01:59:24;1.95;;;1.10;;
35550;SDS011;21655;46.056;13.616;2023-04-03T02:01:49;3.40;;;1.10;;
35550;SDS011;21655;46.056;13.616;2023-04-03T02:04:15;1.38;;;0.80;;
35550;SDS011;21655;46.056;13.616;2023-04-03T02:06:40;2.10;;;1.05;;
35550;SDS011;21655;46.056;13.616;2023-04-03T02:09:06;2.63;;;1.00;;
35550;SDS011;21655;46.056;13.616;2023-04-03T02:11:32;2.25;;;1.17;;
35550;SDS011;21655;46.056;13.616;2023-04-03T02:13:57;4.25;;;1.20;;
35550;SDS011;21655;46.056;13.616;2023-04-03T02:16:23;1.95;;;1.00;;
35550;SDS011;21655;46.056;13.616;2023-04-03T02:18:48;1.73;;;0.95;;
35550;SDS011;21655;46.056;13.616;2023-04-03T02:21:14;2.08;;;1.13;;
35550;SDS011;21655;46.056;13.616;2023-04-03T02:23:40;1.48;;;0.90;;
35550;SDS011;21655;46.056;13.616;2023-04-03T02:26:10;2.60;;;1.20;;
35550;SDS011;21655;46.056;13.616;2023-04-03T02:28:37;2.25;;;1.20;;
35550;SDS011;21655;46.056;13.616;2023-04-03T02:31:03;1.77;;;1.13;;
35550;SDS011;21655;46.056;13.616;2023-04-03T02:33:31;2.92;;;1.02;;
35550;SDS011;21655;46.056;13.616;2023-04-03T02:35:57;1.63;;;1.00;;
35550;SDS011;21655;46.056;13.616;2023-04-03T02:38:23;1.70;;;1.10;;
35550;SDS011;21655;46.056;13.616;2023-04-03T02:40:48;3.50;;;1.00;;
35550;SDS011;21655;46.056;13.616;2023-04-03T02:43:14;1.65;;;1.08;;
35550;SDS011;21655;46.056;13.616;2023-04-03T02:45:40;4.28;;;1.30;;
35550;SDS011;21655;46.056;13.616;2023-04-03T02:48:05;1.95;;;1.05;;
35550;SDS011;21655;46.056;13.616;2023-04-03T02:50:31;1.98;;;1.10;;
35550;SDS011;21655;46.056;13.616;2023-04-03T02:52:56;3.03;;;1.00;;
35550;SDS011;21655;46.056;13.616;2023-04-03T02:55:22;1.63;;;1.00;;
35550;SDS011;21655;46.056;13.616;2023-04-03T02:57:47;1.73;;;0.93;;
35550;SDS011;21655;46.056;13.616;2023-04-03T03:00:13;2.17;;;1.05;;
35550;SDS011;21655;46.056;13.616;2023-04-03T03:02:39;2.70;;;0.95;;
35550;SDS011;21655;46.056;13.616;2023-04-03T03:05:05;3.03;;;1.17;;
35550;SDS011;21655;46.056;13.616;2023-04-03T03:07:31;2.67;;;1.40;;
35550;SDS011;21655;46.056;13.616;2023-04-03T03:09:57;2.72;;;1.15;;
35550;SDS011;21655;46.056;13.616;2023-04-03T03:12:22;1.98;;;1.02;;
35550;SDS011;21655;46.056;13.616;2023-04-03T03:14:49;4.07;;;1.20;;
35550;SDS011;21655;46.056;13.616;2023-04-03T03:17:15;2.13;;;1.10;;
35550;SDS011;21655;46.056;13.616;2023-04-03T03:19:41;2.33;;;1.10;;
35550;SDS011;21655;46.056;13.616;2023-04-03T03:22:07;2.00;;;1.25;;
35550;SDS011;21655;46.056;13.616;2023-04-03T03:24:32;1.92;;;1.17;;
35550;SDS011;21655;46.056;13.616;2023-04-03T03:26:58;2.13;;;1.15;;
35550;SDS011;21655;46.056;13.616;2023-04-03T03:29:23;1.70;;;1.10;;
35550;SDS011;21655;46.056;13.616;2023-04-03T03:31:49;1.85;;;1.10;;
35550;SDS011;21655;46.056;13.616;2023-04-03T03:34:14;2.10;;;1.00;;
35550;SDS011;21655;46.056;13.616;2023-04-03T03:36:40;3.85;;;1.17;;
35550;SDS011;21655;46.056;13.616;2023-04-03T03:39:06;1.60;;;1.00;;
35550;SDS011;21655;46.056;13.616;2023-04-03T03:41:31;2.25;;;1.20;;
35550;SDS011;21655;46.056;13.616;2023-04-03T03:43:57;3.08;;;1.20;;
35550;SDS011;21655;46.056;13.616;2023-04-03T03:46:22;2.03;;;1.10;;
35550;SDS011;21655;46.056;13.616;2023-04-03T03:48:48;2.28;;;1.13;;
35550;SDS011;21655;46.056;13.616;2023-04-03T03:51:13;1.55;;;1.02;;
35550;SDS011;21655;46.056;13.616;2023-04-03T03:53:39;2.22;;;1.13;;
35550;SDS011;21655;46.056;13.616;2023-04-03T03:56:05;1.50;;;1.00;;
35550;SDS011;21655;46.056;13.616;2023-04-03T03:58:31;3.05;;;1.17;;
35550;SDS011;21655;46.056;13.616;2023-04-03T04:00:59;1.85;;;1.10;;
35550;SDS011;21655;46.056;13.616;2023-04-03T04:03:26;1.50;;;0.90;;
35550;SDS011;21655;46.056;13.616;2023-04-03T04:05:51;2.40;;;1.00;;
35550;SDS011;21655;46.056;13.616;2023-04-03T04:08:17;1.73;;;1.25;;
35550;SDS011;21655;46.056;13.616;2023-04-03T04:10:42;3.17;;;1.25;;
35550;SDS011;21655;46.056;13.616;2023-04-03T04:13:07;2.88;;;1.40;;
35550;SDS011;21655;46.056;13.616;2023-04-03T04:15:33;2.75;;;1.40;;
35550;SDS011;21655;46.056;13.616;2023-04-03T04:17:58;2.65;;;1.17;;
35550;SDS011;21655;46.056;13.616;2023-04-03T04:20:24;3.67;;;1.40;;
35550;SDS011;21655;46.056;13.616;2023-04-03T04:22:49;2.63;;;1.25;;
35550;SDS011;21655;46.056;13.616;2023-04-03T04:25:15;3.10;;;1.60;;
35550;SDS011;21655;46.056;13.616;2023-04-03T04:27:40;3.05;;;1.52;;
35550;SDS011;21655;46.056;13.616;2023-04-03T04:30:06;2.28;;;1.40;;
35550;SDS011;21655;46.056;13.616;2023-04-03T04:32:32;3.22;;;1.40;;
35550;SDS011;21655;46.056;13.616;2023-04-03T04:34:58;2.38;;;1.20;;
35550;SDS011;21655;46.056;13.616;2023-04-03T04:37:23;4.75;;;1.77;;
35550;SDS011;21655;46.056;13.616;2023-04-03T04:39:49;3.67;;;1.50;;
35550;SDS011;21655;46.056;13.616;2023-04-03T04:42:14;4.25;;;1.63;;
35550;SDS011;21655;46.056;13.616;2023-04-03T04:44:40;3.17;;;1.70;;
35550;SDS011;21655;46.056;13.616;2023-04-03T04:47:06;4.05;;;1.90;;
35550;SDS011;21655;46.056;13.616;2023-04-03T04:49:31;3.15;;;1.67;;
35550;SDS011;21655;46.056;13.616;2023-04-03T04:51:57;2.47;;;1.40;;
35550;SDS011;21655;46.056;13.616;2023-04-03T04:54:22;3.28;;;1.73;;
35550;SDS011;21655;46.056;13.616;2023-04-03T04:56:48;3.55;;;1.73;;
35550;SDS011;21655;46.056;13.616;2023-04-03T04:59:13;2.75;;;1.60;;
35550;SDS011;21655;46.056;13.616;2023-04-03T05:01:39;5.85;;;1.95;;
35550;SDS011;21655;46.056;13.616;2023-04-03T05:04:05;10.15;;;1.95;;
35550;SDS011;21655;46.056;13.616;2023-04-03T05:06:30;4.18;;;2.00;;
35550;SDS011;21655;46.056;13.616;2023-04-03T05:08:57;6.05;;;1.80;;
35550;SDS011;21655;46.056;13.616;2023-04-03T05:11:23;2.88;;;1.83;;
35550;SDS011;21655;46.056;13.616;2023-04-03T05:13:49;5.70;;;2.10;;
35550;SDS011;21655;46.056;13.616;2023-04-03T05:16:14;3.85;;;1.98;;
35550;SDS011;21655;46.056;13.616;2023-04-03T05:18:40;3.33;;;1.88;;
35550;SDS011;21655;46.056;13.616;2023-04-03T05:21:06;3.40;;;1.80;;
35550;SDS011;21655;46.056;13.616;2023-04-03T05:23:31;5.25;;;1.80;;
35550;SDS011;21655;46.056;13.616;2023-04-03T05:25:57;4.28;;;1.90;;
35550;SDS011;21655;46.056;13.616;2023-04-03T05:28:22;2.90;;;1.70;;
35550;SDS011;21655;46.056;13.616;2023-04-03T05:30:54;4.82;;;1.80;;
35550;SDS011;21655;46.056;13.616;2023-04-03T05:33:21;12.10;;;2.67;;
35550;SDS011;21655;46.056;13.616;2023-04-03T05:35:47;2.83;;;1.60;;
35550;SDS011;21655;46.056;13.616;2023-04-03T05:38:12;3.17;;;1.77;;
35550;SDS011;21655;46.056;13.616;2023-04-03T05:40:38;7.85;;;3.65;;
35550;SDS011;21655;46.056;13.616;2023-04-03T05:43:03;3.47;;;1.83;;
35550;SDS011;21655;46.056;13.616;2023-04-03T05:45:29;3.67;;;1.80;;
35550;SDS011;21655;46.056;13.616;2023-04-03T05:47:55;3.40;;;2.08;;
35550;SDS011;21655;46.056;13.616;2023-04-03T05:50:20;4.38;;;1.83;;
35550;SDS011;21655;46.056;13.616;2023-04-03T05:52:46;3.33;;;1.90;;
35550;SDS011;21655;46.056;13.616;2023-04-03T05:55:14;5.28;;;1.85;;
35550;SDS011;21655;46.056;13.616;2023-04-03T05:57:40;2.95;;;1.88;;
35550;SDS011;21655;46.056;13.616;2023-04-03T06:00:07;6.75;;;1.80;;
35550;SDS011;21655;46.056;13.616;2023-04-03T06:02:37;2.85;;;1.38;;
35550;SDS011;21655;46.056;13.616;2023-04-03T06:05:03;5.90;;;1.98;;
35550;SDS011;21655;46.056;13.616;2023-04-03T06:07:29;2.38;;;1.30;;
35550;SDS011;21655;46.056;13.616;2023-04-03T06:09:56;4.97;;;1.30;;
35550;SDS011;21655;46.056;13.616;2023-04-03T06:12:22;2.65;;;1.20;;
35550;SDS011;21655;46.056;13.616;2023-04-03T06:14:48;2.60;;;1.38;;
35550;SDS011;21655;46.056;13.616;2023-04-03T06:17:14;4.72;;;1.48;;
35550;SDS011;21655;46.056;13.616;2023-04-03T06:19:41;2.92;;;1.42;;
35550;SDS011;21655;46.056;13.616;2023-04-03T06:22:06;2.95;;;1.25;;
35550;SDS011;21655;46.056;13.616;2023-04-03T06:24:32;2.20;;;1.25;;
35550;SDS011;21655;46.056;13.616;2023-04-03T06:26:58;2.55;;;1.20;;
35550;SDS011;21655;46.056;13.616;2023-04-03T06:29:23;1.88;;;1.25;;
35550;SDS011;21655;46.056;13.616;2023-04-03T06:31:50;2.28;;;1.30;;
35550;SDS011;21655;46.056;13.616;2023-04-03T06:34:16;1.75;;;1.23;;
35550;SDS011;21655;46.056;13.616;2023-04-03T06:36:42;3.25;;;1.30;;
35550;SDS011;21655;46.056;13.616;2023-04-03T06:39:08;2.45;;;1.40;;
35550;SDS011;21655;46.056;13.616;2023-04-03T06:41:38;2.63;;;1.40;;
35550;SDS011;21655;46.056;13.616;2023-04-03T06:44:03;2.28;;;1.10;;
35550;SDS011;21655;46.056;13.616;2023-04-03T06:46:29;3.65;;;1.10;;
35550;SDS011;21655;46.056;13.616;2023-04-03T06:48:54;6.65;;;1.60;;
35550;SDS011;21655;46.056;13.616;2023-04-03T06:51:27;2.53;;;1.30;;
35550;SDS011;21655;46.056;13.616;2023-04-03T06:53:55;2.28;;;1.20;;
35550;SDS011;21655;46.056;13.616;2023-04-03T06:56:24;2.70;;;1.20;;
35550;SDS011;21655;46.056;13.616;2023-04-03T06:58:51;2.88;;;1.30;;
35550;SDS011;21655;46.056;13.616;2023-04-03T07:01:20;3.78;;;1.30;;
35550;SDS011;21655;46.056;13.616;2023-04-03T07:03:46;2.08;;;1.17;;
35550;SDS011;21655;46.056;13.616;2023-04-03T07:06:14;1.77;;;1.10;;
35550;SDS011;21655;46.056;13.616;2023-04-03T07:08:40;2.05;;;1.20;;
35550;SDS011;21655;46.056;13.616;2023-04-03T07:11:07;3.05;;;1.50;;
35550;SDS011;21655;46.056;13.616;2023-04-03T07:13:33;3.65;;;1.20;;
35550;SDS011;21655;46.056;13.616;2023-04-03T07:15:58;2.25;;;1.27;;
35550;SDS011;21655;46.056;13.616;2023-04-03T07:18:24;2.42;;;1.38;;
35550;SDS011;21655;46.056;13.616;2023-04-03T07:20:50;5.82;;;1.30;;
35550;SDS011;21655;46.056;13.616;2023-04-03T07:23:16;2.58;;;1.40;;
35550;SDS011;21655;46.056;13.616;2023-04-03T07:25:45;2.58;;;1.38;;
35550;SDS011;21655;46.056;13.616;2023-04-03T07:28:12;3.25;;;1.40;;
35550;SDS011;21655;46.056;13.616;2023-04-03T07:30:45;2.30;;;1.30;;
35550;SDS011;21655;46.056;13.616;2023-04-03T07:33:15;2.42;;;1.20;;
35550;SDS011;21655;46.056;13.616;2023-04-03T07:35:42;2.53;;;1.20;;
35550;SDS011;21655;46.056;13.616;2023-04-03T07:38:08;2.55;;;1.20;;
35550;SDS011;21655;46.056;13.616;2023-04-03T07:40:35;6.05;;;1.60;;
35550;SDS011;21655;46.056;13.616;2023-04-03T07:43:01;2.15;;;1.17;;
35550;SDS011;21655;46.056;13.616;2023-04-03T07:45:27;18.52;;;2.45;;
35550;SDS011;21655;46.056;13.616;2023-04-03T07:47:53;2.88;;;1.10;;
35550;SDS011;21655;46.056;13.616;2023-04-03T07:50:18;5.90;;;1.60;;
35550;SDS011;21655;46.056;13.616;2023-04-03T07:52:44;2.97;;;1.20;;
35550;SDS011;21655;46.056;13.616;2023-04-03T07:55:11;3.40;;;1.10;;
35550;SDS011;21655;46.056;13.616;2023-04-03T07:57:36;2.13;;;1.30;;
35550;SDS011;21655;46.056;13.616;2023-04-03T08:00:05;2.47;;;1.35;;
35550;SDS011;21655;46.056;13.616;2023-04-03T08:02:31;5.88;;;1.40;;
35550;SDS011;21655;46.056;13.616;2023-04-03T08:04:59;2.60;;;1.10;;
35550;SDS011;21655;46.056;13.616;2023-04-03T08:07:25;2.00;;;1.05;;
35550;SDS011;21655;46.056;13.616;2023-04-03T08:09:50;5.05;;;1.33;;
35550;SDS011;21655;46.056;13.616;2023-04-03T08:12:16;2.88;;;1.20;;
35550;SDS011;21655;46.056;13.616;2023-04-03T08:14:42;2.10;;;1.25;;
35550;SDS011;21655;46.056;13.616;2023-04-03T08:17:08;3.38;;;1.30;;
35550;SDS011;21655;46.056;13.616;2023-04-03T08:19:37;6.10;;;1.20;;
35550;SDS011;21655;46.056;13.616;2023-04-03T08:22:03;3.72;;;1.25;;
35550;SDS011;21655;46.056;13.616;2023-04-03T08:24:30;4.05;;;1.35;;
35550;SDS011;21655;46.056;13.616;2023-04-03T08:26:56;3.40;;;1.33;;
35550;SDS011;21655;46.056;13.616;2023-04-03T08:29:22;3.03;;;1.27;;
35550;SDS011;21655;46.056;13.616;2023-04-03T08:31:48;1.80;;;1.10;;
35550;SDS011;21655;46.056;13.616;2023-04-03T08:34:15;3.17;;;1.30;;
35550;SDS011;21655;46.056;13.616;2023-04-03T08:36:41;4.00;;;1.23;;
35550;SDS011;21655;46.056;13.616;2023-04-03T08:39:06;2.45;;;1.20;;
35550;SDS011;21655;46.056;13.616;2023-04-03T08:41:37;5.70;;;1.15;;
35550;SDS011;21655;46.056;13.616;2023-04-03T08:49:37;3.13;;;1.15;;
35550;SDS011;21655;46.056;13.616;2023-04-03T08:52:12;2.17;;;1.13;;
35550;SDS011;21655;46.056;13.616;2023-04-03T08:57:13;6.20;;;1.50;;
35550;SDS011;21655;46.056;13.616;2023-04-03T08:59:39;3.17;;;1.10;;
35550;SDS011;21655;46.056;13.616;2023-04-03T09:02:41;4.35;;;1.30;;
35550;SDS011;21655;46.056;13.616;2023-04-03T09:05:17;2.45;;;0.98;;
35550;SDS011;21655;46.056;13.616;2023-04-03T09:07:59;4.60;;;1.23;;
35550;SDS011;21655;46.056;13.616;2023-04-03T09:10:30;4.93;;;1.30;;
35550;SDS011;21655;46.056;13.616;2023-04-03T09:13:06;4.00;;;1.30;;
35550;SDS011;21655;46.056;13.616;2023-04-03T09:15:38;2.15;;;1.00;;
35550;SDS011;21655;46.056;13.616;2023-04-03T09:18:08;1.67;;;1.00;;
35550;SDS011;21655;46.056;13.616;2023-04-03T09:20:45;2.03;;;1.00;;
35550;SDS011;21655;46.056;13.616;2023-04-03T09:26:24;2.45;;;1.10;;
35550;SDS011;21655;46.056;13.616;2023-04-03T09:28:55;4.75;;;1.27;;
35550;SDS011;21655;46.056;13.616;2023-04-03T09:31:46;2.70;;;1.10;;
35550;SDS011;21655;46.056;13.616;2023-04-03T09:36:51;2.72;;;0.90;;
35550;SDS011;21655;46.056;13.616;2023-04-03T09:39:22;1.95;;;1.10;;
35550;SDS011;21655;46.056;13.616;2023-04-03T09:42:11;3.72;;;0.90;;
35550;SDS011;21655;46.056;13.616;2023-04-03T09:44:59;5.78;;;1.15;;
35550;SDS011;21655;46.056;13.616;2023-04-03T09:47:30;3.00;;;1.35;;
35550;SDS011;21655;46.056;13.616;2023-04-03T09:52:45;2.17;;;1.08;;
35550;SDS011;21655;46.056;13.616;2023-04-03T09:57:39;1.90;;;1.00;;
35550;SDS011;21655;46.056;13.616;2023-04-03T10:00:05;2.60;;;1.00;;
35550;SDS011;21655;46.056;13.616;2023-04-03T10:02:35;5.65;;;1.00;;
35550;SDS011;21655;46.056;13.616;2023-04-03T10:05:05;2.22;;;0.90;;
35550;SDS011;21655;46.056;13.616;2023-04-03T10:10:43;2.63;;;1.00;;
35550;SDS011;21655;46.056;13.616;2023-04-03T10:13:14;2.60;;;0.73;;
35550;SDS011;21655;46.056;13.616;2023-04-03T10:16:03;1.25;;;0.70;;
35550;SDS011;21655;46.056;13.616;2023-04-03T10:21:10;3.95;;;1.20;;
35550;SDS011;21655;46.056;13.616;2023-04-03T10:24:06;1.42;;;0.82;;
35550;SDS011;21655;46.056;13.616;2023-04-03T10:27:05;1.75;;;0.85;;
35550;SDS011;21655;46.056;13.616;2023-04-03T10:35:02;1.55;;;0.80;;
35550;SDS011;21655;46.056;13.616;2023-04-03T10:37:57;2.72;;;0.60;;
35550;SDS011;21655;46.056;13.616;2023-04-03T10:52:12;1.50;;;0.70;;
35550;SDS011;21655;46.056;13.616;2023-04-03T10:57:15;1.75;;;0.68;;
35550;SDS011;21655;46.056;13.616;2023-04-03T11:05:44;1.50;;;0.73;;
35550;SDS011;21655;46.056;13.616;2023-04-03T11:11:17;2.63;;;0.75;;
35550;SDS011;21655;46.056;13.616;2023-04-03T11:13:52;1.80;;;0.80;;
35550;SDS011;21655;46.056;13.616;2023-04-03T11:16:26;1.05;;;0.50;;
35550;SDS011;21655;46.056;13.616;2023-04-03T11:21:28;0.88;;;0.50;;
35550;SDS011;21655;46.056;13.616;2023-04-03T11:23:57;1.00;;;0.60;;
35550;SDS011;21655;46.056;13.616;2023-04-03T11:26:25;1.77;;;0.60;;
35550;SDS011;21655;46.056;13.616;2023-04-03T11:29:05;1.33;;;0.60;;
35550;SDS011;21655;46.056;13.616;2023-04-03T11:37:33;1.35;;;0.68;;
35550;SDS011;21655;46.056;13.616;2023-04-03T11:40:06;1.77;;;0.63;;
35550;SDS011;21655;46.056;13.616;2023-04-03T11:42:55;2.38;;;0.60;;
35550;SDS011;21655;46.056;13.616;2023-04-03T11:45:37;1.63;;;0.63;;
35550;SDS011;21655;46.056;13.616;2023-04-03T11:50:44;1.15;;;0.70;;
35550;SDS011;21655;46.056;13.616;2023-04-03T11:55:52;1.38;;;0.60;;
35550;SDS011;21655;46.056;13.616;2023-04-03T11:58:23;0.88;;;0.57;;
35550;SDS011;21655;46.056;13.616;2023-04-03T12:00:56;1.45;;;0.75;;
35550;SDS011;21655;46.056;13.616;2023-04-03T12:13:36;5.07;;;1.20;;
35550;SDS011;21655;46.056;13.616;2023-04-03T12:16:05;1.58;;;0.60;;
35550;SDS011;21655;46.056;13.616;2023-04-03T12:18:39;3.00;;;0.88;;
35550;SDS011;21655;46.056;13.616;2023-04-03T12:21:22;1.73;;;0.63;;
35550;SDS011;21655;46.056;13.616;2023-04-03T12:46:21;3.83;;;0.60;;
35550;SDS011;21655;46.056;13.616;2023-04-03T12:48:24;1.48;;;0.60;;
35550;SDS011;21655;46.056;13.616;2023-04-03T12:50:52;2.30;;;0.50;;
35550;SDS011;21655;46.056;13.616;2023-04-03T12:53:41;1.20;;;0.70;;
35550;SDS011;21655;46.056;13.616;2023-04-03T12:58:46;1.55;;;0.68;;
35550;SDS011;21655;46.056;13.616;2023-04-03T13:01:13;2.45;;;0.55;;
35550;SDS011;21655;46.056;13.616;2023-04-03T13:03:45;1.20;;;0.70;;
35550;SDS011;21655;46.056;13.616;2023-04-03T13:06:23;1.25;;;0.60;;
35550;SDS011;21655;46.056;13.616;2023-04-03T13:08:57;1.48;;;0.90;;
35550;SDS011;21655;46.056;13.616;2023-04-03T13:11:25;1.45;;;0.73;;
35550;SDS011;21655;46.056;13.616;2023-04-03T13:14:00;2.05;;;0.90;;
35550;SDS011;21655;46.056;13.616;2023-04-03T13:16:33;0.85;;;0.50;;
35550;SDS011;21655;46.056;13.616;2023-04-03T13:18:58;4.25;;;0.70;;
35550;SDS011;21655;46.056;13.616;2023-04-03T13:21:25;1.83;;;0.85;;
35550;SDS011;21655;46.056;13.616;2023-04-03T13:23:57;1.75;;;1.00;;
35550;SDS011;21655;46.056;13.616;2023-04-03T13:26:26;1.75;;;0.80;;
35550;SDS011;21655;46.056;13.616;2023-04-03T13:28:55;2.35;;;0.68;;
35550;SDS011;21655;46.056;13.616;2023-04-03T13:31:29;1.45;;;0.77;;
35550;SDS011;21655;46.056;13.616;2023-04-03T13:36:54;3.08;;;0.70;;
35550;SDS011;21655;46.056;13.616;2023-04-03T13:39:27;4.85;;;0.73;;
35550;SDS011;21655;46.056;13.616;2023-04-03T13:42:00;1.25;;;0.60;;
35550;SDS011;21655;46.056;13.616;2023-04-03T13:44:39;3.95;;;0.60;;
35550;SDS011;21655;46.056;13.616;2023-04-03T13:49:45;1.10;;;0.70;;
35550;SDS011;21655;46.056;13.616;2023-04-03T13:57:58;6.53;;;0.88;;
35550;SDS011;21655;46.056;13.616;2023-04-03T14:00:37;4.07;;;0.80;;
35550;SDS011;21655;46.056;13.616;2023-04-03T14:05:57;2.00;;;1.00;;
35550;SDS011;21655;46.056;13.616;2023-04-03T14:08:23;1.83;;;0.70;;
35550;SDS011;21655;46.056;13.616;2023-04-03T14:10:49;1.88;;;0.75;;
35550;SDS011;21655;46.056;13.616;2023-04-03T14:13:17;1.73;;;0.75;;
35550;SDS011;21655;46.056;13.616;2023-04-03T14:15:44;1.80;;;0.70;;
35550;SDS011;21655;46.056;13.616;2023-04-03T14:18:14;2.55;;;0.70;;
35550;SDS011;21655;46.056;13.616;2023-04-03T14:20:41;1.60;;;0.80;;
35550;SDS011;21655;46.056;13.616;2023-04-03T14:23:07;1.58;;;0.80;;
35550;SDS011;21655;46.056;13.616;2023-04-03T14:25:32;1.92;;;0.70;;
35550;SDS011;21655;46.056;13.616;2023-04-03T14:27:59;4.05;;;0.70;;
35550;SDS011;21655;46.056;13.616;2023-04-03T14:30:29;1.63;;;0.77;;
35550;SDS011;21655;46.056;13.616;2023-04-03T14:32:58;1.90;;;0.90;;
35550;SDS011;21655;46.056;13.616;2023-04-03T14:35:24;1.27;;;0.80;;
35550;SDS011;21655;46.056;13.616;2023-04-03T14:37:51;1.77;;;0.85;;
35550;SDS011;21655;46.056;13.616;2023-04-03T14:40:22;1.13;;;0.60;;
35550;SDS011;21655;46.056;13.616;2023-04-03T14:42:49;2.40;;;0.70;;
35550;SDS011;21655;46.056;13.616;2023-04-03T14:45:15;2.95;;;0.80;;
35550;SDS011;21655;46.056;13.616;2023-04-03T14:47:51;1.65;;;0.70;;
35550;SDS011;21655;46.056;13.616;2023-04-03T14:50:20;2.15;;;0.70;;
35550;SDS011;21655;46.056;13.616;2023-04-03T14:52:48;4.93;;;0.80;;
35550;SDS011;21655;46.056;13.616;2023-04-03T14:55:17;1.50;;;0.70;;
35550;SDS011;21655;46.056;13.616;2023-04-03T14:57:45;1.17;;;0.80;;
35550;SDS011;21655;46.056;13.616;2023-04-03T15:00:17;2.50;;;0.93;;
35550;SDS011;21655;46.056;13.616;2023-04-03T15:05:10;4.80;;;0.75;;
35550;SDS011;21655;46.056;13.616;2023-04-03T15:07:40;2.25;;;0.82;;
35550;SDS011;21655;46.056;13.616;2023-04-03T15:10:18;0.90;;;0.52;;
35550;SDS011;21655;46.056;13.616;2023-04-03T15:12:46;1.90;;;0.95;;
35550;SDS011;21655;46.056;13.616;2023-04-03T15:15:13;3.97;;;0.90;;
35550;SDS011;21655;46.056;13.616;2023-04-03T15:17:39;1.85;;;0.70;;
35550;SDS011;21655;46.056;13.616;2023-04-03T15:20:10;3.65;;;1.20;;
35550;SDS011;21655;46.056;13.616;2023-04-03T15:22:38;1.42;;;0.90;;
35550;SDS011;21655;46.056;13.616;2023-04-03T15:25:03;4.20;;;0.80;;
35550;SDS011;21655;46.056;13.616;2023-04-03T15:27:29;1.50;;;0.80;;
35550;SDS011;21655;46.056;13.616;2023-04-03T15:29:55;2.28;;;1.00;;
35550;SDS011;21655;46.056;13.616;2023-04-03T15:32:21;3.88;;;0.90;;
35550;SDS011;21655;46.056;13.616;2023-04-03T15:34:46;1.40;;;0.90;;
35550;SDS011;21655;46.056;13.616;2023-04-03T15:37:11;1.88;;;0.80;;
35550;SDS011;21655;46.056;13.616;2023-04-03T15:39:37;3.63;;;1.25;;
35550;SDS011;21655;46.056;13.616;2023-04-03T15:42:03;3.42;;;1.00;;
35550;SDS011;21655;46.056;13.616;2023-04-03T15:44:30;5.63;;;1.40;;
35550;SDS011;21655;46.056;13.616;2023-04-03T15:46:57;3.40;;;0.98;;
35550;SDS011;21655;46.056;13.616;2023-04-03T15:49:23;4.35;;;0.90;;
35550;SDS011;21655;46.056;13.616;2023-04-03T15:51:48;1.95;;;0.85;;
35550;SDS011;21655;46.056;13.616;2023-04-03T15:54:14;2.60;;;1.05;;
35550;SDS011;21655;46.056;13.616;2023-04-03T15:56:40;4.50;;;0.90;;
35550;SDS011;21655;46.056;13.616;2023-04-03T15:59:06;1.33;;;0.80;;
35550;SDS011;21655;46.056;13.616;2023-04-03T16:01:31;1.65;;;0.70;;
35550;SDS011;21655;46.056;13.616;2023-04-03T16:03:57;2.30;;;1.00;;
35550;SDS011;21655;46.056;13.616;2023-04-03T16:06:22;1.42;;;0.90;;
35550;SDS011;21655;46.056;13.616;2023-04-03T16:08:49;1.92;;;0.80;;
35550;SDS011;21655;46.056;13.616;2023-04-03T16:11:16;3.45;;;0.80;;
35550;SDS011;21655;46.056;13.616;2023-04-03T16:13:41;2.30;;;0.98;;
35550;SDS011;21655;46.056;13.616;2023-04-03T16:16:07;1.63;;;0.80;;
35550;SDS011;21655;46.056;13.616;2023-04-03T16:18:33;2.50;;;1.00;;
35550;SDS011;21655;46.056;13.616;2023-04-03T16:21:00;2.00;;;1.10;;
35550;SDS011;21655;46.056;13.616;2023-04-03T16:23:25;4.50;;;1.00;;
35550;SDS011;21655;46.056;13.616;2023-04-03T16:25:51;3.35;;;0.80;;
35550;SDS011;21655;46.056;13.616;2023-04-03T16:28:17;2.47;;;0.80;;
35550;SDS011;21655;46.056;13.616;2023-04-03T16:30:43;2.13;;;0.80;;
35550;SDS011;21655;46.056;13.616;2023-04-03T16:33:11;1.75;;;1.00;;
35550;SDS011;21655;46.056;13.616;2023-04-03T16:35:37;1.92;;;0.85;;
35550;SDS011;21655;46.056;13.616;2023-04-03T16:38:03;2.90;;;0.90;;
35550;SDS011;21655;46.056;13.616;2023-04-03T16:40:29;2.03;;;0.93;;
35550;SDS011;21655;46.056;13.616;2023-04-03T16:42:54;1.75;;;0.80;;
35550;SDS011;21655;46.056;13.616;2023-04-03T16:45:20;2.05;;;1.13;;
35550;SDS011;21655;46.056;13.616;2023-04-03T16:47:46;2.13;;;1.30;;